Time;durP1;ratioP1;P1;durP2;ratioP2;P2;SDS_P1;SDS_P2;PMS_P1;PMS_P2;Temp;Humidity;BMP_temperature;BMP_pressure;BME280_temperature;BME280_humidity;BME280_pressure;Samples;Min_cycle;Max_cycle;Signal;HPM_P1;HPM_P2
2024/02/06 00:01:13;;;;;;;13.50;7.50;;;;;;;0.74;100.00;97671.66;5027442;28;20322;-51
2024/02/06 00:03:39;;;;;;;16.27;8.38;;;;;;;0.77;100.00;97668.63;5035692;28;20061;-52
2024/02/06 00:06:06;;;;;;;13.90;8.27;;;;;;;0.82;100.00;97664.59;5023789;28;20408;-54
2024/02/06 00:08:34;;;;;;;13.75;8.68;;;;;;;0.85;100.00;97659.72;5022711;28;20409;-55
2024/02/06 00:11:01;;;;;;;17.73;10.05;;;;;;;0.98;100.00;97660.91;5020920;28;20029;-56
2024/02/06 00:13:28;;;;;;;17.80;8.98;;;;;;;1.11;100.00;97666.44;5032045;28;20049;-54
2024/02/06 00:15:54;;;;;;;16.40;9.23;;;;;;;1.22;100.00;97672.34;5028548;28;20501;-56
2024/02/06 00:18:21;;;;;;;16.88;8.98;;;;;;;1.27;100.00;97670.78;5025355;28;20037;-54
2024/02/06 00:20:47;;;;;;;15.35;9.23;;;;;;;1.51;100.00;97681.34;5030071;28;20472;-55
2024/02/06 00:23:14;;;;;;;20.45;9.88;;;;;;;1.66;100.00;97681.31;5030695;28;20449;-57
2024/02/06 00:25:40;;;;;;;16.67;9.05;;;;;;;1.71;100.00;97668.22;5033027;28;20038;-56
2024/02/06 00:28:07;;;;;;;16.27;10.00;;;;;;;1.82;100.00;97672.25;5031343;28;20047;-52
2024/02/06 00:30:37;;;;;;;18.75;8.88;;;;;;;1.85;100.00;97666.53;5022477;28;20037;-55
2024/02/06 00:33:03;;;;;;;17.30;8.60;;;;;;;1.87;100.00;97667.16;5032420;28;20049;-51
2024/02/06 00:35:30;;;;;;;18.52;9.38;;;;;;;1.87;100.00;97679.69;5026125;28;20044;-57
2024/02/06 00:37:59;;;;;;;14.80;8.38;;;;;;;1.89;100.00;97672.31;5026933;28;20649;-56
2024/02/06 00:40:26;;;;;;;18.27;8.88;;;;;;;1.94;100.00;97672.59;5030420;28;20064;-54
2024/02/06 00:42:53;;;;;;;14.80;8.32;;;;;;;2.03;100.00;97674.13;5027408;28;20045;-54
2024/02/06 00:45:19;;;;;;;14.93;8.50;;;;;;;2.12;100.00;97672.16;5027589;28;20048;-52
2024/02/06 00:47:49;;;;;;;17.05;8.43;;;;;;;2.20;100.00;97664.03;5028825;28;20110;-52
2024/02/06 00:50:16;;;;;;;16.75;8.23;;;;;;;2.26;100.00;97664.28;5036040;28;20030;-55
2024/02/06 00:52:43;;;;;;;17.63;8.43;;;;;;;2.23;100.00;97661.97;5033149;28;20033;-56
2024/02/06 00:55:10;;;;;;;19.25;9.13;;;;;;;2.30;100.00;97660.19;5033294;28;20501;-56
2024/02/06 00:57:38;;;;;;;14.40;7.68;;;;;;;2.42;100.00;97666.69;5024218;28;20040;-53
2024/02/06 01:00:05;;;;;;;17.15;8.20;;;;;;;2.39;100.00;97659.03;5032001;28;20048;-53
2024/02/06 01:02:32;;;;;;;15.60;7.18;;;;;;;2.32;100.00;97655.50;5026477;28;20083;-54
2024/02/06 01:04:58;;;;;;;11.35;6.97;;;;;;;2.28;100.00;97655.03;5035982;28;20139;-55
2024/02/06 01:07:25;;;;;;;16.27;7.45;;;;;;;2.25;100.00;97659.97;5023298;28;20038;-53
2024/02/06 01:09:52;;;;;;;14.00;7.53;;;;;;;2.24;100.00;97658.31;5030013;28;20128;-54
2024/02/06 01:12:18;;;;;;;17.10;7.22;;;;;;;2.25;100.00;97662.63;5029525;28;20466;-52
2024/02/06 01:14:45;;;;;;;13.15;7.20;;;;;;;2.29;100.00;97654.03;5029269;28;20412;-55
2024/02/06 01:17:12;;;;;;;12.77;7.00;;;;;;;2.29;100.00;97647.88;5025429;28;20116;-55
2024/02/06 01:19:38;;;;;;;10.90;6.97;;;;;;;2.31;100.00;97652.00;5027377;28;20030;-54
2024/02/06 01:22:06;;;;;;;13.27;7.03;;;;;;;2.30;100.00;97647.69;5036715;28;20113;-57
2024/02/06 01:24:33;;;;;;;11.30;6.72;;;;;;;2.21;100.00;97649.66;5007830;28;20260;-53
2024/02/06 01:26:59;;;;;;;11.68;6.38;;;;;;;2.13;100.00;97647.09;5007884;28;20049;-53
2024/02/06 01:29:26;;;;;;;13.05;6.90;;;;;;;2.06;100.00;97647.03;5039329;28;20157;-52
2024/02/06 01:31:52;;;;;;;15.45;6.45;;;;;;;1.96;100.00;97649.19;5034031;28;20036;-56
2024/02/06 01:34:19;;;;;;;12.05;6.85;;;;;;;1.86;100.00;97646.84;5028560;28;20045;-57
2024/02/06 01:36:46;;;;;;;10.98;6.45;;;;;;;1.84;100.00;97646.19;5026826;28;20120;-58
2024/02/06 01:39:12;;;;;;;14.85;7.03;;;;;;;1.78;100.00;97645.13;5029004;28;20063;-52
2024/02/06 01:41:39;;;;;;;13.27;6.72;;;;;;;1.81;100.00;97655.41;5025483;28;20396;-55
2024/02/06 01:44:05;;;;;;;13.98;6.15;;;;;;;1.79;100.00;97657.44;5036618;28;20033;-58
2024/02/06 01:46:33;;;;;;;11.65;6.45;;;;;;;1.63;100.00;97658.50;5030099;28;20079;-53
2024/02/06 01:49:02;;;;;;;11.02;6.55;;;;;;;1.57;100.00;97656.56;5028992;28;20038;-58
2024/02/06 01:51:30;;;;;;;11.52;6.50;;;;;;;1.51;100.00;97662.66;5029861;28;20041;-53
2024/02/06 01:53:58;;;;;;;12.02;6.95;;;;;;;1.53;100.00;97661.47;5028439;28;20044;-56
2024/02/06 01:56:25;;;;;;;14.70;7.03;;;;;;;1.54;100.00;97667.59;5030787;28;20675;-55
2024/02/06 01:58:53;;;;;;;12.40;5.93;;;;;;;1.44;100.00;97659.91;5031833;28;20049;-54
2024/02/06 02:01:20;;;;;;;13.90;7.40;;;;;;;1.54;100.00;97662.25;5038877;28;20046;-54
2024/02/06 02:03:50;;;;;;;13.15;6.80;;;;;;;1.56;100.00;97658.41;5033199;28;20485;-52
2024/02/06 02:06:18;;;;;;;11.43;6.55;;;;;;;1.88;100.00;97666.16;5028944;28;20061;-54
2024/02/06 02:08:46;;;;;;;14.15;6.43;;;;;;;2.00;100.00;97661.16;5029363;28;20116;-53
2024/02/06 02:11:13;;;;;;;11.05;6.75;;;;;;;2.03;100.00;97647.41;5019890;28;20120;-59
2024/02/06 02:13:39;;;;;;;10.90;6.05;;;;;;;1.69;100.00;97657.75;5024078;28;20037;-56
2024/02/06 02:16:07;;;;;;;14.57;6.47;;;;;;;1.93;100.00;97653.09;5030642;28;20125;-57
2024/02/06 02:18:36;;;;;;;12.13;6.80;;;;;;;1.97;100.00;97653.53;5030271;28;20464;-58
2024/02/06 02:21:10;;;;;;;14.82;6.25;;;;;;;1.98;100.00;97651.69;5026346;28;20048;-58
2024/02/06 02:23:42;;;;;;;16.17;6.25;;;;;;;2.04;100.00;97653.59;5027000;28;21393;-59
2024/02/06 02:26:09;;;;;;;12.95;6.63;;;;;;;2.08;100.00;97654.84;5026889;28;20037;-55
2024/02/06 02:28:37;;;;;;;17.75;7.32;;;;;;;2.20;100.00;97658.69;5031403;28;20041;-54
2024/02/06 02:31:09;;;;;;;11.63;6.53;;;;;;;2.20;100.00;97658.69;5030313;28;20044;-56
2024/02/06 02:33:37;;;;;;;14.40;7.32;;;;;;;2.16;100.00;97662.75;5029369;28;20377;-54
2024/02/06 02:36:07;;;;;;;12.73;7.50;;;;;;;2.23;100.00;97652.13;5022098;28;20037;-58
2024/02/06 02:38:36;;;;;;;12.52;6.55;;;;;;;2.37;100.00;97654.91;5028367;28;20037;-58
2024/02/06 02:41:02;;;;;;;13.90;7.20;;;;;;;2.45;100.00;97660.97;5033401;28;20041;-57
2024/02/06 02:43:29;;;;;;;16.13;7.75;;;;;;;2.52;100.00;97653.00;5036293;28;20443;-59
2024/02/06 02:45:58;;;;;;;14.10;7.32;;;;;;;2.62;100.00;97652.69;5039569;28;20114;-59
2024/02/06 02:48:24;;;;;;;14.50;7.55;;;;;;;2.62;100.00;97660.69;5033282;28;20038;-57
2024/02/06 02:50:51;;;;;;;12.32;6.47;;;;;;;2.62;100.00;97655.34;5022275;28;20045;-58
2024/02/06 02:53:17;;;;;;;13.10;7.07;;;;;;;2.76;100.00;97647.44;5031202;28;20230;-60
2024/02/06 02:55:45;;;;;;;14.43;6.57;;;;;;;2.79;100.00;97649.69;5023640;28;20038;-59
2024/02/06 02:58:11;;;;;;;13.10;6.68;;;;;;;2.80;100.00;97654.03;5026859;28;20057;-57
2024/02/06 03:00:38;;;;;;;15.27;6.70;;;;;;;2.86;100.00;97648.72;5031537;28;20099;-58
2024/02/06 03:03:06;;;;;;;12.18;6.63;;;;;;;2.98;100.00;97649.00;5039707;28;20417;-58
2024/02/06 03:05:32;;;;;;;15.15;6.93;;;;;;;2.93;100.00;97646.09;5030908;28;20420;-57
2024/02/06 03:07:59;;;;;;;11.27;6.22;;;;;;;3.00;100.00;97643.47;5020890;28;20124;-58
2024/02/06 03:10:25;;;;;;;11.18;6.60;;;;;;;2.96;100.00;97651.06;5030584;28;20582;-58
2024/02/06 03:12:52;;;;;;;12.55;6.82;;;;;;;2.90;100.00;97641.13;5030966;28;20118;-58
2024/02/06 03:15:19;;;;;;;12.60;6.57;;;;;;;2.82;100.00;97641.28;5035145;28;20069;-60
2024/02/06 03:17:47;;;;;;;13.25;6.53;;;;;;;2.83;100.00;97641.09;5026458;28;20053;-59
2024/02/06 03:20:14;;;;;;;12.10;6.57;;;;;;;2.90;100.00;97640.28;5021441;28;20041;-59
2024/02/06 03:22:41;;;;;;;12.13;6.55;;;;;;;2.98;100.00;97640.97;5023392;28;20037;-57
2024/02/06 03:25:07;;;;;;;12.57;6.88;;;;;;;2.97;100.00;97633.97;5020146;28;20041;-57
2024/02/06 03:27:34;;;;;;;14.82;6.53;;;;;;;2.93;100.00;97635.41;5022122;28;20090;-60
2024/02/06 03:30:02;;;;;;;15.85;6.35;;;;;;;2.94;100.00;97638.88;5033706;28;20045;-58
2024/02/06 03:32:29;;;;;;;11.55;6.68;;;;;;;2.96;100.00;97645.72;5031152;28;20047;-56
2024/02/06 03:34:56;;;;;;;11.23;6.43;;;;;;;3.00;100.00;97646.13;5022110;28;20038;-57
2024/02/06 03:37:22;;;;;;;12.30;6.20;;;;;;;3.11;100.00;97655.47;5030409;28;20053;-60
2024/02/06 03:39:49;;;;;;;9.90;5.75;;;;;;;3.11;100.00;97655.47;5031429;28;20576;-59
2024/02/06 03:42:16;;;;;;;15.02;5.93;;;;;;;3.04;100.00;97646.56;5029492;28;20576;-56
2024/02/06 03:44:42;;;;;;;13.80;6.50;;;;;;;3.14;100.00;97649.72;5029743;28;20194;-53
2024/02/06 03:47:09;;;;;;;14.93;6.25;;;;;;;3.15;100.00;97653.22;5024725;28;20048;-55
2024/02/06 03:49:35;;;;;;;10.13;6.18;;;;;;;3.14;100.00;97656.91;5024328;28;20049;-57
2024/02/06 03:52:02;;;;;;;12.40;5.50;;;;;;;3.16;100.00;97658.38;5030430;28;20581;-56
2024/02/06 03:54:29;;;;;;;11.27;5.50;;;;;;;3.30;100.00;97658.44;5025816;28;20056;-57
2024/02/06 03:56:55;;;;;;;10.13;5.57;;;;;;;3.22;100.00;97656.75;5022069;28;20408;-58
2024/02/06 03:59:22;;;;;;;12.13;5.18;;;;;;;3.19;100.00;97666.00;5023901;28;20037;-57
2024/02/06 04:01:48;;;;;;;11.30;5.78;;;;;;;3.10;100.00;97654.63;5027565;28;20045;-58
2024/02/06 04:04:15;;;;;;;11.85;6.47;;;;;;;3.16;100.00;97658.38;5028228;28;20041;-59
2024/02/06 04:06:42;;;;;;;12.52;5.85;;;;;;;3.18;100.00;97666.19;5020641;28;20054;-59
2024/02/06 04:09:10;;;;;;;11.32;5.50;;;;;;;3.18;100.00;97655.50;5028336;28;20040;-60
2024/02/06 04:11:36;;;;;;;11.07;5.68;;;;;;;3.11;100.00;97650.13;5025184;28;20505;-60
2024/02/06 04:14:03;;;;;;;12.93;4.97;;;;;;;3.19;100.00;97652.63;5027534;28;20136;-60
2024/02/06 04:16:29;;;;;;;11.35;5.18;;;;;;;3.17;100.00;97656.53;5025748;28;20562;-55
2024/02/06 04:18:56;;;;;;;11.88;5.93;;;;;;;3.09;100.00;97650.31;5029327;28;20037;-58
2024/02/06 04:21:23;;;;;;;13.68;6.30;;;;;;;3.10;100.00;97667.19;5014099;28;20036;-57
2024/02/06 04:23:49;;;;;;;14.15;5.22;;;;;;;3.07;100.00;97663.06;5028097;28;20104;-57
2024/02/06 04:26:16;;;;;;;11.30;5.78;;;;;;;3.09;100.00;97657.50;5020700;28;20045;-57
2024/02/06 04:28:42;;;;;;;10.73;6.13;;;;;;;3.13;100.00;97664.09;5033465;28;20037;-59
2024/02/06 04:31:09;;;;;;;12.32;5.57;;;;;;;3.07;100.00;97668.41;5033863;28;20041;-59
2024/02/06 04:33:36;;;;;;;12.45;5.35;;;;;;;3.13;100.00;97664.09;5038115;28;20037;-58
2024/02/06 04:36:03;;;;;;;10.35;5.22;;;;;;;3.02;100.00;97667.34;5029281;28;20041;-57
2024/02/06 04:38:29;;;;;;;8.88;5.00;;;;;;;3.06;100.00;97665.94;5024401;28;20133;-58
2024/02/06 04:40:56;;;;;;;9.93;5.15;;;;;;;2.98;100.00;97658.88;5017430;28;20095;-60
2024/02/06 04:43:22;;;;;;;12.88;5.47;;;;;;;2.97;100.00;97659.91;5028728;28;20077;-57
2024/02/06 04:45:49;;;;;;;10.57;5.53;;;;;;;3.00;100.00;97635.44;5027769;28;20056;-58
2024/02/06 04:48:15;;;;;;;8.63;4.60;;;;;;;2.91;100.00;97623.25;5028179;28;20124;-58
2024/02/06 04:50:42;;;;;;;9.27;5.32;;;;;;;2.93;100.00;97615.84;5029675;28;20061;-59
2024/02/06 04:53:08;;;;;;;11.95;4.65;;;;;;;3.02;100.00;97598.59;5026583;28;20056;-60
2024/02/06 04:55:35;;;;;;;8.85;5.20;;;;;;;2.97;100.00;97596.53;5029790;28;20050;-59
2024/02/06 04:58:02;;;;;;;11.68;4.82;;;;;;;2.96;100.00;97592.22;5035225;28;20045;-59
2024/02/06 05:00:29;;;;;;;10.57;5.45;;;;;;;2.98;100.00;97603.53;5042682;28;20504;-59
2024/02/06 05:02:55;;;;;;;9.60;4.95;;;;;;;3.09;100.00;97593.28;5035606;28;20036;-60
2024/02/06 05:05:22;;;;;;;9.48;4.70;;;;;;;3.07;100.00;97595.34;5028468;28;20121;-60
2024/02/06 05:07:49;;;;;;;9.18;4.55;;;;;;;3.19;100.00;97582.22;5038493;28;20052;-58
2024/02/06 05:10:15;;;;;;;8.70;5.03;;;;;;;3.10;100.00;97573.56;5036766;28;20116;-59
2024/02/06 05:12:42;;;;;;;10.10;5.25;;;;;;;3.03;100.00;97586.91;5031273;28;20045;-59
2024/02/06 05:15:10;;;;;;;13.25;4.57;;;;;;;3.04;100.00;97568.97;5018806;28;20323;-59
2024/02/06 05:17:40;;;;;;;9.18;5.10;;;;;;;2.97;100.00;97579.66;5027111;28;20041;-59
2024/02/06 05:20:09;;;;;;;10.65;5.03;;;;;;;3.04;100.00;97577.84;5022675;28;21217;-59
2024/02/06 05:22:37;;;;;;;8.05;3.67;;;;;;;3.11;100.00;97565.31;5031325;28;20055;-59
2024/02/06 05:25:05;;;;;;;8.32;4.13;;;;;;;3.23;100.00;97565.56;5019210;28;20400;-59
2024/02/06 05:27:32;;;;;;;9.82;4.05;;;;;;;3.21;100.00;97564.94;5026431;28;20045;-57
2024/02/06 05:29:58;;;;;;;8.38;3.58;;;;;;;3.30;100.00;97572.78;5022112;28;20052;-60
2024/02/06 05:32:25;;;;;;;6.03;3.35;;;;;;;3.51;100.00;97580.69;5019279;28;20034;-57
2024/02/06 05:34:53;;;;;;;7.88;2.92;;;;;;;3.60;100.00;97575.16;5012958;28;20689;-58
2024/02/06 05:37:20;;;;;;;7.72;3.10;;;;;;;3.61;100.00;97569.59;5028511;28;20400;-56
2024/02/06 05:39:47;;;;;;;7.95;2.75;;;;;;;3.77;100.00;97579.09;5030651;28;20040;-59
2024/02/06 05:42:13;;;;;;;9.32;3.58;;;;;;;3.93;100.00;97571.72;5034346;28;20041;-59
2024/02/06 05:44:40;;;;;;;7.38;3.17;;;;;;;3.96;100.00;97563.28;5032740;28;20091;-58
2024/02/06 05:47:07;;;;;;;5.45;2.40;;;;;;;3.91;100.00;97573.81;5024625;28;20450;-59
2024/02/06 05:49:34;;;;;;;7.57;3.10;;;;;;;3.99;100.00;97567.41;5028745;28;20141;-55
2024/02/06 05:52:01;;;;;;;5.85;2.35;;;;;;;4.02;100.00;97569.69;5039204;28;20051;-59
2024/02/06 05:54:27;;;;;;;8.02;3.30;;;;;;;3.88;100.00;97571.53;5044485;28;20086;-59
2024/02/06 05:56:54;;;;;;;9.90;2.80;;;;;;;3.88;100.00;97571.53;5023019;28;20165;-58
2024/02/06 05:59:22;;;;;;;5.65;2.47;;;;;;;3.92;100.00;97572.75;5025250;28;20064;-60
2024/02/06 06:01:49;;;;;;;6.88;2.63;;;;;;;4.00;100.00;97569.88;5029693;28;20094;-59
2024/02/06 06:04:15;;;;;;;7.88;2.47;;;;;;;4.14;100.00;97567.22;5026284;28;20042;-60
2024/02/06 06:06:42;;;;;;;5.03;2.40;;;;;;;4.21;100.00;97565.38;5023005;28;20048;-59
2024/02/06 06:09:09;;;;;;;4.72;2.67;;;;;;;4.28;100.00;97566.19;5025991;28;20390;-60
2024/02/06 06:11:36;;;;;;;3.85;1.92;;;;;;;4.31;100.00;97550.72;5026492;28;20067;-60
2024/02/06 06:14:02;;;;;;;5.32;2.53;;;;;;;4.27;100.00;97551.13;5029595;28;20302;-59
2024/02/06 06:16:29;;;;;;;6.32;3.65;;;;;;;4.27;100.00;97550.28;5036062;28;20087;-60
2024/02/06 06:18:55;;;;;;;6.90;2.10;;;;;;;4.34;100.00;97555.66;5025478;28;20049;-59
2024/02/06 06:21:22;;;;;;;5.32;2.05;;;;;;;4.38;100.00;97551.53;5030027;28;20034;-59
2024/02/06 06:23:49;;;;;;;7.85;2.63;;;;;;;4.48;100.00;97551.94;5029639;28;20092;-60
2024/02/06 06:26:16;;;;;;;5.88;2.05;;;;;;;4.53;100.00;97546.78;5024371;28;20048;-59
2024/02/06 06:28:42;;;;;;;5.32;2.53;;;;;;;4.53;100.00;97546.78;5026210;28;20521;-59
2024/02/06 06:31:09;;;;;;;4.53;2.30;;;;;;;4.48;100.00;97541.22;5026725;28;20044;-59
2024/02/06 06:33:36;;;;;;;5.07;2.38;;;;;;;4.40;100.00;97553.00;5026855;28;20076;-60
2024/02/06 06:36:03;;;;;;;5.28;2.58;;;;;;;4.33;100.00;97543.28;5029939;28;20428;-58
2024/02/06 06:38:30;;;;;;;5.82;2.28;;;;;;;4.36;100.00;97537.53;5024863;28;20049;-59
2024/02/06 06:40:56;;;;;;;4.65;2.47;;;;;;;4.28;100.00;97549.28;5018621;28;20140;-59
2024/02/06 06:43:23;;;;;;;5.78;2.08;;;;;;;4.22;100.00;97552.78;5022247;28;20046;-58
2024/02/06 06:45:53;;;;;;;4.65;2.22;;;;;;;4.18;100.00;97546.19;5026271;28;20124;-57
2024/02/06 06:48:19;;;;;;;5.38;2.10;;;;;;;4.15;100.00;97550.09;5019962;28;20141;-58
2024/02/06 06:50:46;;;;;;;5.30;2.00;;;;;;;4.19;100.00;97555.84;5025784;28;20467;-59
2024/02/06 06:53:13;;;;;;;7.25;1.88;;;;;;;4.37;100.00;97550.72;5023637;28;20468;-58
2024/02/06 06:55:40;;;;;;;5.32;2.05;;;;;;;4.39;100.00;97547.84;5028725;28;20504;-59
2024/02/06 06:58:06;;;;;;;5.80;1.90;;;;;;;4.38;100.00;97552.34;5018021;28;20120;-58
2024/02/06 07:00:35;;;;;;;5.35;2.05;;;;;;;4.38;100.00;97567.59;5018043;28;20038;-55
2024/02/06 07:03:03;;;;;;;6.40;2.22;;;;;;;4.34;100.00;97555.66;5021211;28;20087;-58
2024/02/06 07:05:30;;;;;;;4.32;2.17;;;;;;;4.33;100.00;97554.00;5019023;28;20330;-56
2024/02/06 07:07:57;;;;;;;5.30;2.60;;;;;;;4.21;100.00;97546.59;5021422;28;20048;-58
2024/02/06 07:10:24;;;;;;;7.90;3.30;;;;;;;4.00;100.00;97555.66;5026655;28;20041;-58
2024/02/06 07:12:51;;;;;;;8.55;3.65;;;;;;;4.06;100.00;97554.00;5020127;28;20045;-62
2024/02/06 07:15:18;;;;;;;6.53;3.42;;;;;;;3.83;100.00;97557.91;5023928;28;20046;-59
2024/02/06 07:17:45;;;;;;;9.38;3.28;;;;;;;3.59;100.00;97560.13;5018417;28;20033;-59
2024/02/06 07:20:11;;;;;;;8.10;3.22;;;;;;;3.63;100.00;97556.84;5020295;28;20208;-59
2024/02/06 07:22:38;;;;;;;7.50;3.67;;;;;;;3.62;100.00;97560.53;5015800;28;20046;-59
2024/02/06 07:25:05;;;;;;;6.85;3.20;;;;;;;3.60;100.00;97564.44;5017332;28;20045;-59
2024/02/06 07:27:32;;;;;;;9.15;3.60;;;;;;;3.79;100.00;97578.09;5026268;28;20289;-59
2024/02/06 07:30:01;;;;;;;6.32;3.40;;;;;;;3.92;100.00;97566.56;5019947;28;20056;-59
2024/02/06 07:32:28;;;;;;;9.27;3.58;;;;;;;3.97;100.00;97574.81;5014845;28;20121;-58
2024/02/06 07:34:55;;;;;;;8.20;3.55;;;;;;;3.74;100.00;97565.31;5017084;28;20033;-62
2024/02/06 07:37:22;;;;;;;7.78;3.30;;;;;;;3.75;100.00;97565.09;5020486;28;20457;-59
2024/02/06 07:39:49;;;;;;;8.45;3.60;;;;;;;3.77;100.00;97565.72;5017029;28;20056;-58
2024/02/06 07:42:15;;;;;;;11.02;3.42;;;;;;;3.58;100.00;97574.53;5022274;28;20405;-59
2024/02/06 07:44:42;;;;;;;8.27;3.20;;;;;;;3.80;100.00;97569.88;5020751;28;20046;-63
2024/02/06 07:47:09;;;;;;;7.35;3.00;;;;;;;4.11;100.00;97575.66;5016838;28;20133;-60
2024/02/06 07:49:35;;;;;;;3.53;1.10;;;;;;;4.50;100.00;97574.00;5019692;28;20615;-58
2024/02/06 07:52:04;;;;;;;3.53;1.70;;;;;;;5.07;100.00;97583.41;5020431;28;20045;-59
2024/02/06 07:54:32;;;;;;;0.63;0.43;;;;;;;5.35;100.00;97584.97;5015370;28;20045;-60
2024/02/06 07:56:59;;;;;;;0.90;0.40;;;;;;;5.48;100.00;97586.75;5017561;28;20309;-58
2024/02/06 07:59:25;;;;;;;1.08;0.50;;;;;;;5.58;100.00;97578.25;5013748;28;20520;-58
2024/02/06 08:01:52;;;;;;;0.80;0.50;;;;;;;5.64;100.00;97585.44;5019583;28;20100;-61
2024/02/06 08:04:19;;;;;;;2.20;0.73;;;;;;;5.69;100.00;97584.78;5018813;28;20044;-56
2024/02/06 08:06:45;;;;;;;2.13;0.70;;;;;;;5.72;100.00;97595.13;5019362;28;20393;-59
2024/02/06 08:09:12;;;;;;;1.00;0.50;;;;;;;5.81;100.00;97599.19;5020303;28;20049;-59
2024/02/06 08:11:39;;;;;;;2.08;0.47;;;;;;;5.82;100.00;97597.34;5025124;28;20069;-59
2024/02/06 08:14:11;;;;;;;0.70;0.40;;;;;;;5.81;100.00;97587.63;5021180;28;20124;-60
2024/02/06 08:16:41;;;;;;;1.40;0.50;;;;;;;5.89;100.00;97581.19;5016462;28;20080;-57
2024/02/06 08:19:08;;;;;;;0.60;0.38;;;;;;;5.92;100.00;97562.75;5017847;28;20042;-65
2024/02/06 08:21:35;;;;;;;0.55;0.40;;;;;;;6.02;100.00;97561.44;5015712;28;20052;-52
2024/02/06 08:24:02;;;;;;;2.33;0.60;;;;;;;5.95;100.00;97562.31;4994016;28;20866;-53
2024/02/06 08:26:29;;;;;;;3.50;0.60;;;;;;;6.01;100.00;97551.72;5013140;28;20460;-53
2024/02/06 08:28:55;;;;;;;1.77;0.65;;;;;;;6.01;100.00;97549.84;5013422;28;20042;-56
2024/02/06 08:31:22;;;;;;;5.18;2.55;;;;;;;6.03;100.00;97542.44;5018223;28;20034;-53
2024/02/06 08:33:50;;;;;;;5.38;2.25;;;;;;;6.18;100.00;97543.97;5013689;28;20319;-53
2024/02/06 08:36:18;;;;;;;1.60;0.45;;;;;;;6.28;100.00;97549.69;5023410;28;20144;-49
2024/02/06 08:38:44;;;;;;;1.95;0.85;;;;;;;6.24;100.00;97546.59;5017006;28;20070;-52
2024/02/06 08:41:11;;;;;;;2.72;0.70;;;;;;;6.29;100.00;97535.19;5016080;28;20083;-50
2024/02/06 08:43:38;;;;;;;1.30;0.60;;;;;;;6.35;100.00;97530.81;5016206;28;20053;-49
2024/02/06 08:46:18;;;;;;;1.58;0.68;;;;;;;6.33;100.00;97539.09;5019643;28;20552;-51
2024/02/06 08:48:44;;;;;;;3.70;0.60;;;;;;;6.42;100.00;97544.19;5019930;28;20061;-52
2024/02/06 08:51:12;;;;;;;2.03;0.80;;;;;;;6.43;100.00;97529.69;5022392;28;20096;-53
2024/02/06 08:53:39;;;;;;;3.22;0.80;;;;;;;6.55;100.00;97532.47;5012083;28;20193;-51
2024/02/06 08:56:05;;;;;;;6.95;2.67;;;;;;;6.59;100.00;97528.28;5017926;28;20044;-51
2024/02/06 08:58:32;;;;;;;8.18;2.75;;;;;;;6.63;100.00;97535.72;5014779;28;20104;-52
2024/02/06 09:00:58;;;;;;;1.58;1.00;;;;;;;6.83;100.00;97536.56;5014123;28;20145;-58
2024/02/06 09:03:26;;;;;;;1.88;0.57;;;;;;;6.85;100.00;97534.44;5022288;28;20126;-58
2024/02/06 09:05:52;;;;;;;2.72;0.90;;;;;;;6.80;100.00;97532.44;5020905;28;20540;-59
2024/02/06 09:08:19;;;;;;;3.65;0.85;;;;;;;6.87;100.00;97538.59;5021651;28;20054;-59
2024/02/06 09:10:46;;;;;;;4.45;0.68;;;;;;;7.03;100.00;97529.09;5026008;28;20034;-60
2024/02/06 09:13:13;;;;;;;3.80;1.30;;;;;;;7.00;100.00;97540.28;5030223;28;20124;-56
2024/02/06 09:15:39;;;;;;;3.65;0.90;;;;;;;7.12;100.00;97526.09;5031256;28;20584;-59
2024/02/06 09:18:06;;;;;;;2.55;0.82;;;;;;;7.20;100.00;97535.72;5023785;28;20072;-59
2024/02/06 09:20:33;;;;;;;3.20;1.20;;;;;;;7.18;100.00;97529.75;5025387;28;20112;-58
2024/02/06 09:23:03;;;;;;;5.80;1.80;;;;;;;7.26;100.00;97524.88;5029572;28;20140;-58
2024/02/06 09:25:30;;;;;;;5.32;1.10;;;;;;;7.43;100.00;97513.47;5020014;28;20053;-55
2024/02/06 09:27:56;;;;;;;2.70;0.70;;;;;;;7.63;100.00;97515.06;5024763;28;20046;-57
2024/02/06 09:30:23;;;;;;;2.15;0.75;;;;;;;7.72;100.00;97515.56;5012720;28;20402;-59
2024/02/06 09:32:50;;;;;;;2.17;0.80;;;;;;;7.67;100.00;97514.38;5012748;28;20045;-59
2024/02/06 09:35:16;;;;;;;3.22;1.05;;;;;;;7.81;100.00;97512.31;5025804;28;20749;-59
2024/02/06 09:37:43;;;;;;;4.85;1.25;;;;;;;7.93;100.00;97515.03;5011519;28;20077;-58
2024/02/06 09:40:11;;;;;;;6.13;1.23;;;;;;;7.72;100.00;97502.91;5025834;28;20500;-59
2024/02/06 09:42:38;;;;;;;4.65;1.17;;;;;;;7.74;100.00;97516.97;5021662;28;20132;-59
2024/02/06 09:45:06;;;;;;;5.85;2.00;;;;;;;7.85;100.00;97501.88;5021637;28;20111;-58
2024/02/06 09:47:33;;;;;;;6.72;1.30;;;;;;;7.84;100.00;97510.19;5023851;28;20048;-58
2024/02/06 09:50:03;;;;;;;2.08;0.77;;;;;;;8.03;100.00;97510.94;5022352;28;20041;-59
2024/02/06 09:52:32;;;;;;;5.57;1.95;;;;;;;8.09;100.00;97518.09;5024082;28;20164;-57
2024/02/06 09:55:07;;;;;;;6.72;2.50;;;;;;;8.01;100.00;97508.50;5015054;28;20046;-56
2024/02/06 09:57:37;;;;;;;5.85;0.90;;;;;;;8.01;100.00;97516.56;5021293;28;20037;-59
2024/02/06 10:00:10;;;;;;;4.95;0.95;;;;;;;8.34;100.00;97525.19;5017545;28;21253;-57
2024/02/06 10:02:41;;;;;;;3.80;0.98;;;;;;;8.38;100.00;97518.25;5024176;28;20519;-58
2024/02/06 10:05:21;;;;;;;4.43;1.15;;;;;;;8.48;100.00;97523.06;5024969;28;20412;-57
2024/02/06 10:07:48;;;;;;;4.05;0.90;;;;;;;8.65;99.21;97523.22;5024964;28;20068;-57
2024/02/06 10:10:18;;;;;;;10.43;4.07;;;;;;;8.57;99.62;97526.25;5015683;28;20048;-58
2024/02/06 10:12:45;;;;;;;4.75;1.15;;;;;;;8.45;100.00;97526.25;5019395;28;20444;-57
2024/02/06 10:15:20;;;;;;;2.83;0.77;;;;;;;8.41;100.00;97530.47;5017028;28;20088;-55
2024/02/06 10:17:47;;;;;;;7.15;0.60;;;;;;;8.63;100.00;97532.59;5015916;28;20074;-58
2024/02/06 10:20:13;;;;;;;4.80;0.95;;;;;;;8.64;100.00;97526.13;5021269;28;20115;-56
2024/02/06 10:22:41;;;;;;;3.45;0.98;;;;;;;8.56;100.00;97527.31;5017186;28;20485;-57
2024/02/06 10:25:08;;;;;;;4.30;1.13;;;;;;;8.59;100.00;97518.75;5022016;28;20128;-54
2024/02/06 10:27:35;;;;;;;6.72;1.02;;;;;;;8.56;100.00;97524.63;5013423;28;20052;-57
2024/02/06 10:30:03;;;;;;;4.45;1.40;;;;;;;8.48;100.00;97516.84;5021322;28;20080;-55
2024/02/06 10:32:32;;;;;;;7.10;0.98;;;;;;;8.59;100.00;97526.88;5019327;28;20049;-56
2024/02/06 10:35:04;;;;;;;2.40;0.70;;;;;;;8.67;100.00;97512.97;5013071;28;20057;-58
2024/02/06 10:37:38;;;;;;;5.65;1.00;;;;;;;8.82;100.00;97525.19;5019626;28;20049;-56
2024/02/06 10:40:15;;;;;;;6.97;1.75;;;;;;;8.75;100.00;97524.47;5020488;28;20053;-57
2024/02/06 10:42:42;;;;;;;5.03;1.63;;;;;;;8.60;100.00;97512.31;5016386;28;20124;-55
2024/02/06 10:45:28;;;;;;;3.53;1.00;;;;;;;8.89;100.00;97508.88;5018286;28;20046;-57
2024/02/06 10:47:56;;;;;;;4.90;1.10;;;;;;;8.73;100.00;97510.41;5017956;28;20038;-61
2024/02/06 10:50:23;;;;;;;7.28;1.05;;;;;;;8.66;100.00;97513.25;5024967;28;20124;-60
2024/02/06 10:52:50;;;;;;;6.95;1.70;;;;;;;8.68;100.00;97506.53;5019775;28;20048;-58
2024/02/06 10:55:16;;;;;;;4.90;0.82;;;;;;;8.67;100.00;97510.28;5019190;28;20512;-57
2024/02/06 10:57:45;;;;;;;6.13;1.80;;;;;;;8.65;100.00;97504.31;5015682;28;20041;-61
2024/02/06 11:00:19;;;;;;;5.60;1.10;;;;;;;8.88;99.38;97499.94;5015996;28;20121;-61
2024/02/06 11:02:51;;;;;;;7.22;1.45;;;;;;;8.93;98.73;97496.53;5017366;28;20535;-61
2024/02/06 11:05:34;;;;;;;6.78;1.50;;;;;;;8.90;98.90;97499.69;5016580;28;20038;-59
2024/02/06 11:08:03;;;;;;;5.82;1.13;;;;;;;8.73;100.00;97496.91;4996731;28;20395;-53
2024/02/06 11:10:36;;;;;;;7.70;1.80;;;;;;;8.84;99.16;97493.34;5021552;28;20676;-58
2024/02/06 11:13:07;;;;;;;9.93;1.60;;;;;;;8.96;98.85;97488.75;5017143;28;20034;-56
2024/02/06 11:15:40;;;;;;;4.60;1.40;;;;;;;8.99;98.65;97495.56;5016218;28;20056;-53
2024/02/06 11:18:09;;;;;;;2.90;0.70;;;;;;;8.85;99.06;97487.72;5022368;28;20401;-53
2024/02/06 11:20:37;;;;;;;6.55;0.90;;;;;;;8.84;99.74;97480.69;5017835;28;20552;-56
2024/02/06 11:23:06;;;;;;;8.48;1.20;;;;;;;9.02;98.29;97488.84;5021458;28;20033;-55
2024/02/06 11:25:35;;;;;;;7.82;1.10;;;;;;;9.05;98.73;97481.13;5010652;28;20050;-55
2024/02/06 11:28:03;;;;;;;12.50;2.30;;;;;;;9.16;97.27;97489.41;5016582;28;20137;-58
2024/02/06 11:30:32;;;;;;;6.68;1.23;;;;;;;9.15;97.18;97480.50;5024182;28;20037;-54